createdAt,value
2019-02-22T00:01:14.157Z,61.40
2019-02-22T00:03:43.193Z,47.47
2019-02-22T00:06:12.167Z,53.10
2019-02-22T00:08:41.196Z,50.57
2019-02-22T00:11:10.329Z,52.73
2019-02-22T00:13:39.167Z,44.87
2019-02-22T00:16:08.230Z,49.37
2019-02-22T00:18:37.595Z,48.87
2019-02-22T00:21:06.554Z,53.00
2019-02-22T00:23:35.573Z,49.07
2019-02-22T00:26:04.627Z,49.83
2019-02-22T00:28:33.810Z,49.50
2019-02-22T00:31:02.824Z,51.40
2019-02-22T00:33:31.909Z,51.23
2019-02-22T00:36:00.941Z,52.60
2019-02-22T00:38:29.949Z,48.10
2019-02-22T00:40:59.076Z,46.03
2019-02-22T00:43:28.140Z,50.57
2019-02-22T00:45:57.187Z,48.00
2019-02-22T00:48:26.198Z,54.90
2019-02-22T00:50:55.268Z,48.27
2019-02-22T00:53:24.229Z,48.93
2019-02-22T00:55:53.293Z,51.33
2019-02-22T00:58:22.385Z,48.90
2019-02-22T01:00:51.353Z,54.63
2019-02-22T01:03:20.329Z,56.37
2019-02-22T01:05:49.516Z,49.57
2019-02-22T01:08:18.460Z,49.83
2019-02-22T01:10:47.448Z,55.53
2019-02-22T01:13:16.534Z,52.63
2019-02-22T01:15:45.519Z,50.10
2019-02-22T01:18:14.413Z,49.37
2019-02-22T01:20:53.762Z,58.47
2019-02-22T01:23:14.192Z,47.70
2019-02-22T01:25:43.190Z,51.07
2019-02-22T01:28:12.257Z,58.70
2019-02-22T01:30:41.349Z,46.17
2019-02-22T01:33:10.253Z,50.50
2019-02-22T01:35:39.264Z,48.97
2019-02-22T01:38:08.236Z,46.43
2019-02-22T01:40:43.586Z,54.73
2019-02-22T01:43:07.992Z,49.23
2019-02-22T01:45:38.787Z,54.30
2019-02-22T01:48:08.022Z,55.17
2019-02-22T01:50:37.193Z,51.23
2019-02-22T01:53:06.148Z,48.80
2019-02-22T01:55:35.169Z,50.10
2019-02-22T01:58:04.116Z,51.97
2019-02-22T02:00:33.117Z,50.30
2019-02-22T02:03:02.080Z,48.87
2019-02-22T02:05:31.002Z,48.87
2019-02-22T02:08:00.079Z,50.83
2019-02-22T02:10:29.173Z,47.67
2019-02-22T02:12:58.150Z,44.37
2019-02-22T02:15:27.233Z,54.10
2019-02-22T02:17:56.213Z,53.83
2019-02-22T02:20:25.212Z,49.80
2019-02-22T02:22:54.384Z,55.57
2019-02-22T02:25:23.492Z,50.50
2019-02-22T02:27:52.525Z,51.07
2019-02-22T02:30:21.528Z,56.67
2019-02-22T02:32:50.494Z,47.27
2019-02-22T02:35:19.428Z,47.50
2019-02-22T02:37:48.475Z,53.80
2019-02-22T02:40:17.645Z,45.93
2019-02-22T02:42:46.614Z,51.03
2019-02-22T02:45:15.623Z,47.57
2019-02-22T02:47:44.584Z,47.53
2019-02-22T02:50:16.801Z,48.87
2019-02-22T02:52:46.029Z,46.57
2019-02-22T02:55:31.444Z,51.90
2019-02-22T02:58:00.557Z,49.97
2019-02-22T03:00:29.592Z,43.77
2019-02-22T03:02:58.612Z,46.70
2019-02-22T03:05:46.648Z,47.13
2019-02-22T03:08:15.645Z,59.57
2019-02-22T03:10:44.640Z,50.13
2019-02-22T03:13:13.963Z,50.57
2019-02-22T03:15:42.998Z,48.40
2019-02-22T03:18:12.017Z,51.50
2019-02-22T03:20:41.092Z,52.30
2019-02-22T03:23:10.149Z,47.37
2019-02-22T03:25:39.121Z,53.23
2019-02-22T03:28:08.218Z,52.03
2019-02-22T03:30:37.173Z,53.30
2019-02-22T03:33:06.164Z,49.60
2019-02-22T03:35:35.365Z,56.53
2019-02-22T03:38:05.938Z,55.10
2019-02-22T03:40:35.024Z,52.97
2019-02-22T03:43:03.982Z,58.03
2019-02-22T03:45:32.945Z,54.97
2019-02-22T03:48:01.984Z,53.80
2019-02-22T03:50:31.054Z,54.93
2019-02-22T03:53:06.598Z,59.60
2019-02-22T03:55:35.590Z,56.97
2019-02-22T03:58:04.724Z,51.40
2019-02-22T04:00:33.599Z,52.73
2019-02-22T04:03:02.562Z,55.10
2019-02-22T04:05:31.529Z,66.70
2019-02-22T04:08:00.607Z,58.77
2019-02-22T04:10:29.644Z,55.67
2019-02-22T04:12:58.904Z,60.90
2019-02-22T04:15:27.790Z,56.17
2019-02-22T04:17:56.895Z,71.33
2019-02-22T04:20:25.985Z,67.07
2019-02-22T04:22:55.031Z,64.37
2019-02-22T04:25:24.221Z,69.03
2019-02-22T04:27:53.444Z,64.93
2019-02-22T04:30:22.568Z,69.97
2019-02-22T04:32:51.533Z,72.20
2019-02-22T04:35:20.533Z,78.23
2019-02-22T04:37:49.420Z,64.60
2019-02-22T04:40:18.410Z,71.63
2019-02-22T04:42:47.392Z,74.03
2019-02-22T04:45:16.451Z,68.83
2019-02-22T04:47:45.397Z,76.83
2019-02-22T04:50:14.589Z,70.07
2019-02-22T04:52:43.569Z,71.03
2019-02-22T04:55:12.578Z,67.90
2019-02-22T04:57:42.109Z,70.70
2019-02-22T05:00:11.192Z,69.03
2019-02-22T05:02:40.253Z,69.97
2019-02-22T05:05:09.286Z,71.50
2019-02-22T05:07:38.226Z,69.60
2019-02-22T05:10:07.524Z,71.03
2019-02-22T05:12:37.147Z,85.37
2019-02-22T05:15:12.427Z,69.57
2019-02-22T05:17:37.033Z,75.13
2019-02-22T05:20:06.123Z,78.40
2019-02-22T05:22:35.220Z,76.37
2019-02-22T05:25:04.590Z,76.93
2019-02-22T05:27:33.542Z,72.57
2019-02-22T05:30:02.629Z,73.13
2019-02-22T05:32:31.696Z,83.33
2019-02-22T05:35:00.686Z,82.97
2019-02-22T05:37:29.572Z,83.30
2019-02-22T05:39:58.713Z,78.30
2019-02-22T05:42:28.710Z,77.00
2019-02-22T05:44:57.906Z,77.93
2019-02-22T05:47:26.941Z,86.20
2019-02-22T05:49:55.881Z,78.07
2019-02-22T05:52:24.885Z,77.90
2019-02-22T05:54:53.845Z,74.43
2019-02-22T05:57:22.805Z,80.80
2019-02-22T05:59:51.881Z,80.97
2019-02-22T06:02:21.237Z,78.43
2019-02-22T06:04:50.193Z,82.43
2019-02-22T06:07:19.206Z,87.77
2019-02-22T06:09:48.276Z,78.70
2019-02-22T06:12:18.633Z,81.57
2019-02-22T06:14:48.090Z,85.87
2019-02-22T06:17:17.207Z,88.77
2019-02-22T06:19:46.212Z,92.33
2019-02-22T06:22:15.259Z,85.33
2019-02-22T06:24:44.284Z,100.53
2019-02-22T06:27:13.305Z,97.03
2019-02-22T06:29:42.384Z,109.10
2019-02-22T06:32:11.333Z,109.20
2019-02-22T06:34:40.305Z,111.37
2019-02-22T06:37:09.322Z,113.00
2019-02-22T06:39:38.474Z,108.60
2019-02-22T06:42:07.533Z,110.00
2019-02-22T06:44:36.552Z,115.67
2019-02-22T06:47:05.530Z,110.47
2019-02-22T06:49:35.592Z,112.87
2019-02-22T06:52:04.605Z,103.60
2019-02-22T06:54:33.580Z,119.60
2019-02-22T06:57:02.548Z,99.93
2019-02-22T06:59:31.537Z,106.13
2019-02-22T07:02:00.622Z,111.33
2019-02-22T07:04:29.593Z,108.27
2019-02-22T07:06:58.589Z,107.87
2019-02-22T07:09:27.554Z,102.70
2019-02-22T07:11:59.728Z,95.93
2019-02-22T07:14:28.727Z,99.33
2019-02-22T07:16:57.822Z,101.73
2019-02-22T07:19:26.696Z,94.67
2019-02-22T07:21:55.662Z,101.83
2019-02-22T07:24:24.672Z,102.50
2019-02-22T07:26:53.700Z,107.00
2019-02-22T07:29:22.663Z,102.20
2019-02-22T07:31:51.864Z,113.40
2019-02-22T07:34:20.892Z,104.27
2019-02-22T07:36:49.912Z,95.67
2019-02-22T07:39:27.462Z,102.20
2019-02-22T07:41:49.730Z,96.40
2019-02-22T07:44:18.833Z,102.20
2019-02-22T07:46:47.840Z,102.20
2019-02-22T07:49:24.204Z,103.90
2019-02-22T07:51:53.228Z,98.70
2019-02-22T07:54:22.263Z,95.93
2019-02-22T07:56:51.162Z,100.17
2019-02-22T07:59:20.226Z,95.27
2019-02-22T08:01:51.212Z,96.97
2019-02-22T08:04:20.245Z,89.07
2019-02-22T08:06:49.400Z,102.10
2019-02-22T08:09:18.368Z,94.53
2019-02-22T08:11:48.148Z,100.17
2019-02-22T08:14:17.536Z,86.73
2019-02-22T08:16:46.601Z,98.10
2019-02-22T08:19:15.661Z,97.60
2019-02-22T08:21:45.850Z,89.87
2019-02-22T08:24:14.849Z,89.30
2019-02-22T08:26:43.923Z,89.63
2019-02-22T08:29:12.965Z,85.20
2019-02-22T08:31:41.894Z,89.57
2019-02-22T08:34:12.444Z,86.83
2019-02-22T08:36:41.624Z,90.60
2019-02-22T08:39:10.700Z,99.60
2019-02-22T08:41:39.735Z,88.30
2019-02-22T08:44:08.738Z,79.67
2019-02-22T08:46:37.783Z,79.10
2019-02-22T08:49:06.754Z,79.10
2019-02-22T08:51:35.727Z,75.20
2019-02-22T08:54:04.706Z,77.93
2019-02-22T08:56:33.706Z,78.30
2019-02-22T08:59:02.923Z,74.33
2019-02-22T09:01:32.076Z,73.20
2019-02-22T09:04:01.116Z,74.93
2019-02-22T09:06:30.124Z,71.77
2019-02-22T09:08:59.196Z,71.73
2019-02-22T09:11:28.263Z,76.90
2019-02-22T09:13:57.309Z,77.23
2019-02-22T09:16:26.333Z,69.00
2019-02-22T09:18:55.300Z,78.63
2019-02-22T09:21:24.274Z,78.27
2019-02-22T09:23:53.484Z,68.40
2019-02-22T09:26:22.508Z,71.40
2019-02-22T09:28:51.477Z,69.97
2019-02-22T09:31:20.568Z,71.43
2019-02-22T09:33:49.540Z,77.00
2019-02-22T09:36:18.527Z,65.93
2019-02-22T09:38:47.540Z,71.43
2019-02-22T09:41:16.434Z,74.60
2019-02-22T09:43:54.562Z,73.50
2019-02-22T09:46:16.148Z,72.73
2019-02-22T09:48:45.219Z,67.80
2019-02-22T09:51:14.192Z,66.53
2019-02-22T09:53:43.319Z,68.27
2019-02-22T09:56:12.412Z,65.67
2019-02-22T09:58:41.550Z,66.13
2019-02-22T10:01:10.564Z,61.13
2019-02-22T10:03:39.550Z,61.53
2019-02-22T10:06:08.605Z,57.60
2019-02-22T10:08:37.809Z,60.20
2019-02-22T10:11:06.796Z,66.47
2019-02-22T10:13:37.692Z,64.23
2019-02-22T10:16:06.707Z,62.40
2019-02-22T10:18:35.612Z,70.80
2019-02-22T10:21:04.695Z,71.40
2019-02-22T10:23:33.681Z,68.60
2019-02-22T10:26:02.653Z,62.37
2019-02-22T10:28:31.805Z,58.60
2019-02-22T10:31:00.744Z,57.93
2019-02-22T10:33:36.649Z,63.20
2019-02-22T10:36:00.501Z,56.73
2019-02-22T10:38:29.540Z,53.10
2019-02-22T10:40:58.552Z,52.70
2019-02-22T10:43:27.615Z,53.20
2019-02-22T10:45:56.657Z,50.20
2019-02-22T10:48:25.690Z,50.87
2019-02-22T10:50:54.798Z,51.43
2019-02-22T10:53:23.691Z,49.50
2019-02-22T10:55:52.802Z,49.77
2019-02-22T10:58:21.777Z,48.73
2019-02-22T11:00:50.825Z,48.87
2019-02-22T11:03:19.936Z,50.30
2019-02-22T11:05:48.829Z,48.00
2019-02-22T11:08:17.838Z,48.33
2019-02-22T11:10:47.145Z,43.57
2019-02-22T11:13:16.266Z,44.87
2019-02-22T11:15:45.917Z,45.93
2019-02-22T11:18:14.899Z,45.80
2019-02-22T11:20:43.810Z,44.80
2019-02-22T11:23:12.933Z,43.33
2019-02-22T11:25:41.904Z,49.37
2019-02-22T11:28:10.904Z,47.03
2019-02-22T11:30:39.896Z,48.57
2019-02-22T11:33:08.858Z,40.07
2019-02-22T11:35:37.960Z,40.40
2019-02-22T11:38:06.875Z,43.57
2019-02-22T11:40:35.860Z,45.20
2019-02-22T11:43:04.960Z,43.03
2019-02-22T11:45:34.224Z,44.90
2019-02-22T11:48:09.239Z,42.50
2019-02-22T11:50:33.941Z,43.93
2019-02-22T11:53:02.989Z,41.70
2019-02-22T11:55:32.061Z,49.47
2019-02-22T11:58:01.201Z,47.03
2019-02-22T12:00:32.943Z,45.20
2019-02-22T12:03:15.947Z,43.43
2019-02-22T12:05:32.680Z,41.30
2019-02-22T12:08:03.587Z,39.20
2019-02-22T12:10:32.448Z,34.13
2019-02-22T12:13:01.628Z,32.83
2019-02-22T12:15:31.594Z,30.47
2019-02-22T12:18:00.700Z,32.00
2019-02-22T12:20:29.680Z,30.60
2019-02-22T12:22:58.700Z,33.57
2019-02-22T12:25:27.676Z,33.43
2019-02-22T12:27:56.674Z,35.03
2019-02-22T12:30:25.864Z,33.97
2019-02-22T12:32:55.016Z,34.77
2019-02-22T12:35:23.961Z,36.40
2019-02-22T12:37:53.049Z,38.20
2019-02-22T12:40:22.021Z,35.37
2019-02-22T12:42:51.069Z,32.53
2019-02-22T12:45:20.416Z,37.40
2019-02-22T12:47:49.449Z,38.33
2019-02-22T12:50:18.445Z,37.87
2019-02-22T12:52:47.441Z,36.53
2019-02-22T12:55:16.425Z,40.93
2019-02-22T12:57:45.424Z,36.60
2019-02-22T13:00:14.436Z,38.10
2019-02-22T13:02:43.740Z,43.50
2019-02-22T13:05:15.263Z,40.93
2019-02-22T13:07:44.356Z,35.97
2019-02-22T13:10:13.388Z,39.67
2019-02-22T13:12:42.370Z,34.40
2019-02-22T13:15:14.503Z,35.67
2019-02-22T13:17:42.802Z,32.90
2019-02-22T13:20:12.005Z,37.00
2019-02-22T13:22:41.069Z,33.43
2019-02-22T13:25:10.093Z,33.13
2019-02-22T13:27:39.072Z,35.70
2019-02-22T13:30:09.232Z,34.73
2019-02-22T13:32:38.381Z,32.30
2019-02-22T13:35:07.400Z,32.40
2019-02-22T13:37:36.366Z,32.73
2019-02-22T13:40:06.329Z,31.17
2019-02-22T13:42:35.320Z,31.10
2019-02-22T13:45:04.523Z,30.70
2019-02-22T13:47:33.410Z,33.73
2019-02-22T13:50:02.473Z,31.63
2019-02-22T13:52:31.423Z,32.97
2019-02-22T13:55:00.301Z,34.20
2019-02-22T13:57:30.364Z,33.77
2019-02-22T13:59:59.767Z,31.93
2019-02-22T14:02:28.731Z,33.63
2019-02-22T14:04:57.653Z,31.33
2019-02-22T14:07:26.644Z,31.00
2019-02-22T14:09:55.536Z,35.70
2019-02-22T14:12:24.579Z,34.00
2019-02-22T14:14:53.500Z,34.50
2019-02-22T14:17:22.060Z,35.30
2019-02-22T14:19:51.064Z,33.97
2019-02-22T14:22:20.172Z,35.40
2019-02-22T14:24:49.145Z,34.83
2019-02-22T14:27:18.257Z,35.60
2019-02-22T14:29:47.546Z,32.93
2019-02-22T14:32:16.494Z,33.10
2019-02-22T14:34:45.588Z,33.30
2019-02-22T14:37:14.706Z,33.77
2019-02-22T14:39:43.836Z,34.70
2019-02-22T14:42:12.850Z,33.50
2019-02-22T14:44:42.982Z,34.60
2019-02-22T14:47:11.981Z,33.97
2019-02-22T14:49:41.092Z,32.83
2019-02-22T14:52:12.653Z,35.13
2019-02-22T14:54:41.004Z,33.87
2019-02-22T14:57:10.044Z,33.97
2019-02-22T14:59:39.025Z,33.70
2019-02-22T15:02:08.025Z,34.47
2019-02-22T15:04:37.030Z,30.20
2019-02-22T15:07:05.990Z,35.10
2019-02-22T15:09:35.309Z,31.37
2019-02-22T15:12:04.291Z,33.73
2019-02-22T15:14:33.248Z,31.20
2019-02-22T15:17:24.221Z,32.93
2019-02-22T15:19:53.172Z,34.70
2019-02-22T15:22:22.157Z,33.87
2019-02-22T15:24:53.556Z,30.73
2019-02-22T15:27:21.976Z,34.70
2019-02-22T15:29:50.989Z,33.13
2019-02-22T15:32:20.212Z,30.30
2019-02-22T15:34:49.562Z,31.03
2019-02-22T15:37:18.452Z,31.90
2019-02-22T15:39:47.496Z,31.00
2019-02-22T15:42:16.630Z,31.17
2019-02-22T15:44:45.620Z,29.80
2019-02-22T15:47:14.690Z,32.73
2019-02-22T15:49:43.718Z,32.63
2019-02-22T15:52:12.673Z,31.20
2019-02-22T15:54:41.656Z,31.67
2019-02-22T15:57:10.680Z,32.53
2019-02-22T15:59:39.558Z,30.83
2019-02-22T16:02:08.630Z,29.80
2019-02-22T16:04:48.157Z,28.90
2019-02-22T16:07:17.187Z,30.43
2019-02-22T16:09:46.273Z,30.70
2019-02-22T16:12:15.367Z,29.87
2019-02-22T16:14:44.468Z,29.60
2019-02-22T16:17:13.530Z,29.67
2019-02-22T16:19:42.528Z,29.60
2019-02-22T16:22:11.610Z,29.47
2019-02-22T16:24:40.674Z,32.27
2019-02-22T16:27:09.743Z,28.47
2019-02-22T16:29:38.724Z,29.30
2019-02-22T16:32:07.824Z,29.97
2019-02-22T16:34:43.627Z,29.60
2019-02-22T16:37:07.611Z,29.67
2019-02-22T16:39:36.668Z,31.50
2019-02-22T16:42:05.773Z,32.50
2019-02-22T16:44:34.857Z,28.77
2019-02-22T16:47:03.829Z,29.20
2019-02-22T16:49:33.129Z,30.70
2019-02-22T16:52:02.634Z,31.77
2019-02-22T16:54:31.585Z,29.07
2019-02-22T16:57:00.889Z,30.97
2019-02-22T16:59:29.828Z,28.47
2019-02-22T17:01:58.929Z,31.23
2019-02-22T17:04:28.006Z,28.33
2019-02-22T17:06:57.100Z,30.40
2019-02-22T17:09:26.098Z,29.90
2019-02-22T17:12:05.835Z,30.27
2019-02-22T17:14:25.793Z,27.80
2019-02-22T17:16:54.345Z,30.47
2019-02-22T17:19:23.326Z,33.03
2019-02-22T17:21:52.554Z,31.77
2019-02-22T17:24:21.638Z,30.43
2019-02-22T17:26:50.758Z,37.03
2019-02-22T17:29:19.834Z,30.03
2019-02-22T17:31:48.892Z,31.40
2019-02-22T17:34:17.864Z,31.23
2019-02-22T17:36:46.869Z,30.33
2019-02-22T17:39:15.860Z,31.70
2019-02-22T17:41:46.538Z,36.37
2019-02-22T17:44:15.053Z,29.97
2019-02-22T17:46:44.049Z,31.17
2019-02-22T17:49:13.077Z,33.20
2019-02-22T17:51:42.149Z,32.97
2019-02-22T17:54:11.224Z,35.27
2019-02-22T17:56:40.274Z,35.60
2019-02-22T17:59:09.486Z,34.27
2019-02-22T18:01:38.496Z,31.07
2019-02-22T18:04:07.583Z,33.87
2019-02-22T18:06:36.582Z,31.77
2019-02-22T18:09:06.293Z,31.47
2019-02-22T18:11:35.301Z,31.43
2019-02-22T18:14:04.460Z,31.20
2019-02-22T18:16:34.850Z,32.40
2019-02-22T18:19:03.838Z,36.33
2019-02-22T18:21:32.875Z,38.00
2019-02-22T18:24:01.433Z,31.67
2019-02-22T18:26:30.365Z,33.90
2019-02-22T18:29:00.882Z,32.60
2019-02-22T18:31:29.955Z,32.50
2019-02-22T18:33:59.013Z,34.77
2019-02-22T18:36:28.202Z,34.57
2019-02-22T18:38:57.297Z,38.80
2019-02-22T18:41:26.270Z,32.60
2019-02-22T18:43:55.355Z,34.47
2019-02-22T18:46:24.539Z,32.83
2019-02-22T18:48:53.658Z,32.50
2019-02-22T18:51:22.747Z,35.70
2019-02-22T18:53:51.776Z,34.03
2019-02-22T18:56:20.997Z,33.57
2019-02-22T18:58:50.218Z,31.40
2019-02-22T19:01:19.173Z,34.00
2019-02-22T19:03:48.229Z,33.87
2019-02-22T19:06:16.838Z,35.67
2019-02-22T19:08:45.832Z,37.10
2019-02-22T19:11:14.855Z,35.17
2019-02-22T19:13:43.855Z,34.27
2019-02-22T19:16:12.924Z,31.67
2019-02-22T19:18:41.996Z,33.37
2019-02-22T19:21:10.959Z,34.37
2019-02-22T19:23:40.048Z,33.03
2019-02-22T19:26:09.059Z,31.53
2019-02-22T19:28:39.124Z,33.40
2019-02-22T19:31:08.238Z,35.30
2019-02-22T19:33:37.249Z,34.00
2019-02-22T19:36:06.306Z,33.80
2019-02-22T19:38:35.451Z,38.07
2019-02-22T19:41:04.594Z,39.17
2019-02-22T19:43:33.748Z,35.90
2019-02-22T19:46:02.960Z,36.90
2019-02-22T19:48:32.029Z,33.63
2019-02-22T19:51:01.142Z,34.53
2019-02-22T19:53:30.480Z,33.90
2019-02-22T19:55:59.646Z,35.57
2019-02-22T19:58:28.678Z,34.40
2019-02-22T20:00:57.662Z,35.10
2019-02-22T20:03:26.236Z,36.47
2019-02-22T20:05:55.309Z,38.40
2019-02-22T20:08:24.322Z,38.77
2019-02-22T20:10:53.453Z,40.77
2019-02-22T20:13:22.690Z,32.50
2019-02-22T20:15:51.745Z,34.97
2019-02-22T20:18:22.718Z,37.97
2019-02-22T20:20:51.778Z,39.57
2019-02-22T20:23:20.894Z,36.07
2019-02-22T20:25:51.767Z,34.70
2019-02-22T20:28:20.894Z,33.33
2019-02-22T20:30:49.964Z,34.77
2019-02-22T20:33:19.529Z,33.57
2019-02-22T20:35:48.644Z,34.07
2019-02-22T20:38:17.864Z,36.70
2019-02-22T20:40:47.098Z,42.30
2019-02-22T20:43:16.359Z,39.60
2019-02-22T20:45:45.523Z,36.80
2019-02-22T20:48:14.601Z,36.77
2019-02-22T20:50:43.854Z,36.90
2019-02-22T20:53:13.710Z,36.00
2019-02-22T20:55:42.808Z,42.77
2019-02-22T20:58:11.865Z,39.40
2019-02-22T21:00:41.087Z,42.87
2019-02-22T21:03:10.173Z,40.20
2019-02-22T21:05:39.385Z,42.30
2019-02-22T21:08:08.411Z,39.90
2019-02-22T21:10:37.540Z,41.67
2019-02-22T21:13:06.730Z,40.90
2019-02-22T21:15:36.307Z,39.77
2019-02-22T21:18:15.615Z,38.57
2019-02-22T21:20:37.700Z,39.13
2019-02-22T21:23:06.831Z,39.70
2019-02-22T21:25:35.997Z,42.07
2019-02-22T21:28:04.919Z,41.80
2019-02-22T21:30:33.939Z,37.53
2019-02-22T21:33:02.955Z,45.63
2019-02-22T21:35:32.211Z,36.70
2019-02-22T21:38:01.402Z,39.07
2019-02-22T21:40:30.563Z,36.03
2019-02-22T21:42:59.591Z,35.50
2019-02-22T21:45:28.583Z,33.00
2019-02-22T21:47:57.547Z,36.43
2019-02-22T21:50:26.606Z,35.27
2019-02-22T21:52:55.818Z,35.07
2019-02-22T21:55:24.904Z,40.00
2019-02-22T21:57:53.934Z,36.23
2019-02-22T22:00:23.041Z,35.37
2019-02-22T22:02:52.168Z,37.77
2019-02-22T22:05:21.231Z,37.80
2019-02-22T22:07:50.151Z,40.77
2019-02-22T22:10:19.137Z,33.70
2019-02-22T22:12:48.473Z,38.87
2019-02-22T22:15:17.470Z,36.47
2019-02-22T22:17:46.516Z,36.07
2019-02-22T22:20:15.655Z,35.20
2019-02-22T22:22:44.708Z,41.33
2019-02-22T22:25:13.800Z,37.47
2019-02-22T22:27:42.648Z,34.70
2019-02-22T22:30:12.319Z,35.53
2019-02-22T22:32:41.393Z,36.80
2019-02-22T22:35:12.021Z,35.33
2019-02-22T22:37:41.013Z,35.90
2019-02-22T22:40:10.378Z,33.43
2019-02-22T22:42:39.475Z,35.90
2019-02-22T22:45:09.368Z,35.70
2019-02-22T22:47:38.316Z,34.50
2019-02-22T22:50:09.626Z,38.30
2019-02-22T22:52:38.561Z,35.10
2019-02-22T22:55:07.969Z,36.87
2019-02-22T22:57:37.086Z,36.60
2019-02-22T23:00:12.106Z,36.53
2019-02-22T23:02:41.257Z,34.30
2019-02-22T23:05:10.430Z,35.03
2019-02-22T23:07:39.529Z,33.60
2019-02-22T23:10:08.636Z,35.93
2019-02-22T23:12:37.713Z,33.03
2019-02-22T23:15:06.793Z,36.07
2019-02-22T23:17:35.912Z,41.70
2019-02-22T23:20:05.112Z,40.57
2019-02-22T23:22:34.562Z,47.57
2019-02-22T23:25:03.661Z,35.70
2019-02-22T23:27:32.753Z,36.70
2019-02-22T23:30:01.672Z,38.80
2019-02-22T23:32:30.723Z,37.13
2019-02-22T23:34:59.713Z,38.10
2019-02-22T23:37:28.670Z,34.07
2019-02-22T23:39:57.917Z,35.37
2019-02-22T23:42:27.012Z,36.10
2019-02-22T23:44:56.119Z,36.10
2019-02-22T23:47:25.090Z,38.93
2019-02-22T23:49:54.062Z,42.70
2019-02-22T23:52:23.056Z,35.73
2019-02-22T23:54:52.021Z,36.20
2019-02-22T23:57:21.199Z,34.97
2019-02-22T23:59:50.169Z,34.20
